Página principal
METAR-TAF:

METAR-TAF

Aeroportos :

Anchorage, Alasca, Estados Unidos

latitude: 61-11N, longitude: 149-58W, altura: 22 m

Observação actual do tempo

O boletim foi feito há 25 minutos, às 12:53 UTC
Vento calmo
Temperatura 13°C
Humidade 67%
Pressão 1008 hPa
Visibilidade: 16.1 km
Céu limpo

METAR: PALH 221253Z AUTO 00000KT 10SM CLR 13/07 A2976 RMK AO2 SLP079 T01330067 TSNO

Hora: 05:18 (13:18 UTC)


TAF: em falta

Observações e previsões do tempo de mais de 4000 aeroportos (mensagens METAR e TAF).

As estações disponíveis são os pontos amarelos e vermelhos sobre o mapa.

Mova o rato sobre o mapa para ver o nome da estação.

Depois clique no ponto para visualizar as observações e previsões meteorológicas.

Para alterar o mapa : clique nos botões verdes com uma cruz preta para aumentar o zoom; no botão verde com uma pitada de zoom; ou nas setas verdes para mapas adjacentes.


METAR-TAF: